Time;durP1;ratioP1;P1;durP2;ratioP2;P2;SDS_P1;SDS_P2;PMS_P1;PMS_P2;Temp;Humidity;BMP_temperature;BMP_pressure;BME280_temperature;BME280_humidity;BME280_pressure;Samples;Min_cycle;Max_cycle;Signal;HPM_P1;HPM_P2
2023/10/30 00:02:07;;;;;;;1.90;0.40;;;;;;;12.84;100.00;99628.56;5016827;28;20440;-71
2023/10/30 00:04:34;;;;;;;1.80;0.50;;;;;;;12.84;100.00;99625.06;5016841;28;20472;-71
2023/10/30 00:07:00;;;;;;;1.80;0.30;;;;;;;12.91;100.00;99630.72;5017356;28;20527;-72
2023/10/30 00:09:27;;;;;;;1.80;0.50;;;;;;;12.94;100.00;99624.59;5016997;28;20454;-71
2023/10/30 00:11:54;;;;;;;2.47;0.70;;;;;;;12.96;100.00;99627.75;5016428;28;20451;-72
2023/10/30 00:14:21;;;;;;;2.10;0.40;;;;;;;13.01;100.00;99626.75;5016873;28;20502;-71
2023/10/30 00:16:49;;;;;;;1.90;0.50;;;;;;;13.07;100.00;99636.28;5016725;28;20441;-72
2023/10/30 00:19:15;;;;;;;1.90;0.50;;;;;;;13.08;100.00;99625.03;5016687;28;20566;-72
2023/10/30 00:21:43;;;;;;;2.23;0.50;;;;;;;13.07;100.00;99620.75;5016401;28;20526;-72
2023/10/30 00:24:10;;;;;;;2.20;0.50;;;;;;;13.11;100.00;99631.75;4998676;28;20944;-72
2023/10/30 00:26:36;;;;;;;2.10;0.60;;;;;;;13.06;100.00;99621.88;5016404;28;20996;-72
2023/10/30 00:29:03;;;;;;;2.77;0.40;;;;;;;13.07;100.00;99619.97;5016438;28;20447;-72
2023/10/30 00:31:30;;;;;;;1.80;0.40;;;;;;;13.09;100.00;99634.00;5016381;28;20538;-72
2023/10/30 00:33:58;;;;;;;1.80;0.40;;;;;;;13.10;100.00;99644.53;5016071;28;20490;-72
2023/10/30 00:36:24;;;;;;;2.00;0.50;;;;;;;13.08;100.00;99643.28;5015647;28;21013;-72
2023/10/30 00:38:51;;;;;;;2.47;0.47;;;;;;;13.08;100.00;99646.78;5015974;28;20439;-72
2023/10/30 00:41:18;;;;;;;2.10;0.60;;;;;;;13.11;99.20;99648.06;5016265;28;20502;-72
2023/10/30 00:43:44;;;;;;;1.90;0.50;;;;;;;13.15;98.31;99651.69;5016042;28;20440;-72
2023/10/30 00:46:11;;;;;;;1.73;0.30;;;;;;;13.12;98.37;99655.88;5016218;28;20447;-72
2023/10/30 00:48:37;;;;;;;1.80;0.40;;;;;;;13.14;98.72;99655.50;5016355;28;20523;-72
2023/10/30 00:51:06;;;;;;;1.80;0.40;;;;;;;13.13;99.09;99675.69;5016118;28;20794;-72
2023/10/30 00:53:32;;;;;;;2.40;0.50;;;;;;;13.06;99.04;99675.47;5015893;28;20520;-72
2023/10/30 00:55:59;;;;;;;1.80;0.40;;;;;;;13.06;99.24;99670.03;5015933;28;20535;-72
2023/10/30 00:58:26;;;;;;;3.53;0.70;;;;;;;13.03;99.52;99678.88;5016220;28;20446;-73
2023/10/30 01:00:52;;;;;;;1.80;0.40;;;;;;;13.01;99.58;99681.13;5015870;28;20792;-73
2023/10/30 01:03:23;;;;;;;1.90;0.50;;;;;;;13.02;99.02;99680.78;5016636;28;20464;-73
2023/10/30 01:05:57;;;;;;;1.90;0.43;;;;;;;13.05;98.87;99679.31;5018190;28;20486;-73
2023/10/30 01:08:25;;;;;;;1.80;0.33;;;;;;;13.02;99.18;99677.28;5018605;28;20404;-72
2023/10/30 01:10:52;;;;;;;1.97;0.57;;;;;;;13.02;99.18;99677.28;5015751;28;20439;-72
2023/10/30 01:13:19;;;;;;;1.90;0.50;;;;;;;13.00;99.33;99679.53;5015884;28;20826;-72
2023/10/30 01:15:46;;;;;;;2.20;0.53;;;;;;;13.03;98.45;99679.66;5015162;28;20965;-73
2023/10/30 01:18:12;;;;;;;1.77;0.37;;;;;;;13.08;98.73;99692.22;5015637;28;20463;-73
2023/10/30 01:20:39;;;;;;;1.90;0.43;;;;;;;13.07;99.09;99693.38;5015258;28;20448;-73
2023/10/30 01:23:06;;;;;;;1.83;0.43;;;;;;;13.06;98.79;99689.06;5016083;28;20528;-72
2023/10/30 01:25:34;;;;;;;2.30;0.50;;;;;;;13.11;97.91;99697.00;5015510;28;20464;-73
2023/10/30 01:28:01;;;;;;;1.93;0.40;;;;;;;13.09;98.28;99710.91;5015038;28;20440;-73
2023/10/30 01:30:27;;;;;;;3.90;0.43;;;;;;;13.06;99.36;99699.94;5015014;28;20956;-73
2023/10/30 01:32:54;;;;;;;1.90;0.47;;;;;;;13.01;99.92;99708.28;5015210;28;21080;-73
2023/10/30 01:35:20;;;;;;;1.80;0.40;;;;;;;13.05;99.16;99707.28;5015388;28;20460;-73
2023/10/30 01:37:47;;;;;;;1.80;0.40;;;;;;;13.05;99.54;99701.84;5015191;28;20498;-73
2023/10/30 01:40:15;;;;;;;1.90;0.40;;;;;;;13.02;100.00;99709.91;5014804;28;20440;-73
2023/10/30 01:42:43;;;;;;;2.73;0.60;;;;;;;13.00;100.00;99709.44;5015102;28;20468;-73
2023/10/30 01:45:10;;;;;;;2.33;0.43;;;;;;;12.97;100.00;99708.22;5015580;28;20471;-73
2023/10/30 01:47:38;;;;;;;1.80;0.30;;;;;;;13.00;99.70;99712.16;5015015;28;20502;-73
2023/10/30 01:50:07;;;;;;;1.87;0.40;;;;;;;13.02;100.00;99724.28;5014920;28;20808;-73
2023/10/30 01:52:35;;;;;;;1.80;0.40;;;;;;;13.02;99.58;99732.44;5015108;28;20470;-73
2023/10/30 01:55:03;;;;;;;1.90;0.50;;;;;;;12.98;99.95;99730.75;5015057;28;20949;-73
2023/10/30 01:57:30;;;;;;;1.80;0.30;;;;;;;13.04;99.76;99726.66;5014927;28;20815;-73
2023/10/30 01:59:59;;;;;;;2.40;0.60;;;;;;;13.04;98.61;99741.03;5015448;28;20440;-73
2023/10/30 02:02:29;;;;;;;1.80;0.40;;;;;;;13.02;99.15;99737.09;5014781;28;20523;-73
2023/10/30 02:04:56;;;;;;;1.80;0.40;;;;;;;13.00;99.14;99739.34;5014653;28;20538;-73
2023/10/30 02:07:22;;;;;;;2.00;0.50;;;;;;;13.01;98.91;99740.91;5014720;28;20519;-73
2023/10/30 02:09:50;;;;;;;3.37;0.70;;;;;;;13.03;98.74;99744.13;5014777;28;20455;-73
2023/10/30 02:12:17;;;;;;;3.50;0.83;;;;;;;13.03;99.03;99744.13;5014926;28;20440;-73
2023/10/30 02:14:43;;;;;;;1.90;0.47;;;;;;;12.95;99.69;99748.50;5014567;28;20561;-73
2023/10/30 02:17:11;;;;;;;2.00;0.60;;;;;;;12.93;99.95;99748.06;5014308;28;20531;-73
2023/10/30 02:19:38;;;;;;;1.80;0.40;;;;;;;12.92;99.49;99754.59;5014723;28;20531;-73
2023/10/30 02:22:05;;;;;;;2.23;0.50;;;;;;;12.91;99.61;99741.38;5014590;28;20929;-73
2023/10/30 02:24:32;;;;;;;1.93;0.50;;;;;;;12.89;99.55;99749.88;5018778;28;20462;-72
2023/10/30 02:27:01;;;;;;;2.00;0.47;;;;;;;12.85;99.98;99751.66;5014517;28;21008;-72
2023/10/30 02:29:27;;;;;;;1.80;0.40;;;;;;;12.81;100.00;99746.09;5014232;28;20447;-72
2023/10/30 02:31:55;;;;;;;1.90;0.40;;;;;;;12.77;100.00;99747.91;5014015;28;20938;-72
2023/10/30 02:34:21;;;;;;;1.93;0.40;;;;;;;12.78;100.00;99741.34;5013865;28;20489;-72
2023/10/30 02:36:48;;;;;;;1.80;0.30;;;;;;;12.77;100.00;99747.91;5014187;28;20874;-73
2023/10/30 02:39:14;;;;;;;1.80;0.40;;;;;;;12.80;100.00;99736.38;5013812;28;20442;-73
2023/10/30 02:41:41;;;;;;;1.90;0.47;;;;;;;12.79;100.00;99745.66;5014062;28;20450;-73
2023/10/30 02:44:09;;;;;;;2.00;0.50;;;;;;;12.80;100.00;99735.59;5014370;28;20546;-73
2023/10/30 02:46:36;;;;;;;2.00;0.40;;;;;;;12.78;100.00;99744.06;5014570;28;20530;-73
2023/10/30 02:49:02;;;;;;;2.00;0.40;;;;;;;12.76;100.00;99737.38;5014159;28;20548;-73
2023/10/30 02:51:29;;;;;;;2.00;0.50;;;;;;;12.74;100.00;99737.69;5013952;28;20451;-73
2023/10/30 02:53:55;;;;;;;2.87;0.50;;;;;;;12.75;100.00;99735.78;5014088;28;20487;-73
2023/10/30 02:56:22;;;;;;;2.10;0.50;;;;;;;12.76;100.00;99749.03;5014127;28;20479;-73
2023/10/30 02:58:49;;;;;;;1.80;0.47;;;;;;;12.72;100.00;99750.06;5013342;28;20524;-73
2023/10/30 03:01:17;;;;;;;2.97;0.50;;;;;;;12.71;100.00;99746.53;5013878;28;20502;-73
2023/10/30 03:03:43;;;;;;;1.80;0.40;;;;;;;12.71;100.00;99754.69;5013676;28;20788;-72
2023/10/30 03:06:10;;;;;;;1.80;0.40;;;;;;;12.68;100.00;99754.56;5013736;28;20444;-72
2023/10/30 03:08:36;;;;;;;1.80;0.30;;;;;;;12.70;100.00;99746.88;5013512;28;20515;-72
2023/10/30 03:11:03;;;;;;;2.00;0.47;;;;;;;12.66;100.00;99743.22;5013380;28;20472;-72
2023/10/30 03:13:30;;;;;;;1.80;0.40;;;;;;;12.65;100.00;99745.16;5013698;28;20484;-72
2023/10/30 03:15:57;;;;;;;2.30;0.50;;;;;;;12.68;100.00;99751.84;5013965;28;20522;-72
2023/10/30 03:18:24;;;;;;;2.03;0.60;;;;;;;12.70;100.00;99755.00;5014011;28;20527;-72
2023/10/30 03:20:51;;;;;;;2.30;0.50;;;;;;;12.71;100.00;99749.25;5013378;28;20981;-73
2023/10/30 03:23:20;;;;;;;2.20;0.50;;;;;;;12.74;100.00;99742.34;5013719;28;20902;-72
2023/10/30 03:25:46;;;;;;;2.37;0.70;;;;;;;12.74;100.00;99743.13;5013879;28;20554;-72
2023/10/30 03:28:13;;;;;;;1.80;0.40;;;;;;;12.71;100.00;99748.47;5013660;28;20550;-72
2023/10/30 03:30:40;;;;;;;1.90;0.50;;;;;;;12.72;100.00;99755.47;5013560;28;20450;-72
2023/10/30 03:33:06;;;;;;;2.00;0.40;;;;;;;12.70;100.00;99744.94;5013393;28;20530;-73
2023/10/30 03:35:37;;;;;;;1.80;0.40;;;;;;;12.71;100.00;99762.84;5013293;28;20510;-72
2023/10/30 03:38:04;;;;;;;1.90;0.40;;;;;;;12.74;100.00;99756.72;5013548;28;20438;-72
2023/10/30 03:40:31;;;;;;;2.20;0.40;;;;;;;12.70;100.00;99753.09;5013549;28;20444;-72
2023/10/30 03:42:57;;;;;;;2.20;0.50;;;;;;;12.65;100.00;99761.44;5013736;28;20450;-73
2023/10/30 03:45:24;;;;;;;2.00;0.50;;;;;;;12.59;100.00;99760.09;5013230;28;20487;-72
2023/10/30 03:47:51;;;;;;;1.80;0.40;;;;;;;12.55;100.00;99764.59;5013320;28;20456;-72
2023/10/30 03:50:17;;;;;;;1.80;0.40;;;;;;;12.54;100.00;99765.72;5013422;28;20479;-72
2023/10/30 03:52:45;;;;;;;1.90;0.47;;;;;;;12.56;100.00;99758.03;5013668;28;20436;-72
2023/10/30 03:55:12;;;;;;;2.57;0.63;;;;;;;12.55;100.00;99768.09;5013465;28;20492;-72
2023/10/30 03:57:40;;;;;;;2.17;0.60;;;;;;;12.59;100.00;99762.81;5013422;28;20436;-72
2023/10/30 04:00:08;;;;;;;4.07;0.50;;;;;;;12.60;100.00;99765.16;5013382;28;20532;-72
2023/10/30 04:02:35;;;;;;;1.83;0.40;;;;;;;12.65;100.00;99758.72;5013450;28;20448;-72
2023/10/30 04:05:01;;;;;;;5.70;1.00;;;;;;;12.64;100.00;99765.31;5012841;28;20456;-72
2023/10/30 04:07:28;;;;;;;1.90;0.47;;;;;;;12.64;100.00;99765.31;5013051;28;20450;-72
2023/10/30 04:09:56;;;;;;;1.80;0.40;;;;;;;12.66;100.00;99770.41;5013757;28;20440;-73
2023/10/30 04:12:23;;;;;;;2.00;0.50;;;;;;;12.66;100.00;99773.94;5017170;28;20547;-73
2023/10/30 04:14:50;;;;;;;1.80;0.40;;;;;;;12.70;100.00;99760.44;5017012;28;20519;-73
2023/10/30 04:17:16;;;;;;;1.80;0.40;;;;;;;12.70;100.00;99768.59;5017072;28;20530;-72
2023/10/30 04:19:43;;;;;;;2.77;0.47;;;;;;;12.67;100.00;99764.66;5016718;28;20532;-73
2023/10/30 04:22:10;;;;;;;2.30;0.57;;;;;;;12.69;100.00;99762.38;5031517;23;20491;-68
2023/10/30 04:24:36;;;;;;;1.93;0.47;;;;;;;12.68;100.00;99768.94;5016869;28;20546;-69
2023/10/30 04:27:04;;;;;;;2.00;0.57;;;;;;;12.68;100.00;99770.88;5017102;28;20444;-69
2023/10/30 04:29:31;;;;;;;1.87;0.50;;;;;;;12.67;100.00;99759.22;5017129;28;20596;-68
2023/10/30 04:31:57;;;;;;;2.20;0.47;;;;;;;12.70;100.00;99763.16;5016824;28;20535;-68
2023/10/30 04:34:24;;;;;;;2.67;0.60;;;;;;;12.69;100.00;99765.09;5016271;28;20519;-68
2023/10/30 04:36:50;;;;;;;1.80;0.40;;;;;;;12.69;100.00;99762.38;5016827;28;20988;-68
2023/10/30 04:39:17;;;;;;;2.27;0.60;;;;;;;12.66;100.00;99784.81;5016648;28;20542;-68
2023/10/30 04:41:44;;;;;;;2.10;0.60;;;;;;;12.55;100.00;99770.81;5016827;28;20502;-67
2023/10/30 04:44:12;;;;;;;3.40;0.50;;;;;;;12.53;100.00;99758.72;5016319;28;20460;-69
2023/10/30 04:46:38;;;;;;;1.80;0.40;;;;;;;12.50;100.00;99753.94;5016321;28;20448;-69
2023/10/30 04:49:05;;;;;;;4.53;0.50;;;;;;;12.42;100.00;99752.09;5016585;28;20806;-68
2023/10/30 04:51:31;;;;;;;2.93;0.70;;;;;;;12.42;100.00;99771.09;5016498;28;20532;-67
2023/10/30 04:53:58;;;;;;;2.00;0.40;;;;;;;12.45;100.00;99778.59;5016122;28;20523;-69
2023/10/30 04:56:25;;;;;;;2.50;0.60;;;;;;;12.37;100.00;99772.91;5016489;28;20444;-69
2023/10/30 04:58:51;;;;;;;2.10;0.57;;;;;;;12.31;100.00;99771.53;5016062;28;20960;-69
2023/10/30 05:01:19;;;;;;;2.00;0.57;;;;;;;12.20;100.00;99786.63;5016821;28;20440;-69
2023/10/30 05:03:46;;;;;;;2.00;0.50;;;;;;;12.21;100.00;99779.25;5015741;28;20453;-69
2023/10/30 05:06:13;;;;;;;2.23;0.60;;;;;;;12.19;100.00;99776.88;5016569;28;20440;-69
2023/10/30 05:08:39;;;;;;;3.17;0.60;;;;;;;12.21;100.00;99785.47;5016152;28;20535;-68
2023/10/30 05:11:06;;;;;;;1.90;0.40;;;;;;;12.19;100.00;99782.31;5016623;28;20448;-68
2023/10/30 05:13:34;;;;;;;1.90;0.50;;;;;;;12.21;100.00;99777.34;5015641;28;20443;-68
2023/10/30 05:16:01;;;;;;;2.00;0.50;;;;;;;12.22;100.00;99787.09;5015953;28;20455;-68
2023/10/30 05:18:30;;;;;;;2.17;0.50;;;;;;;12.31;100.00;99790.53;5016216;28;20567;-68
2023/10/30 05:20:56;;;;;;;2.40;0.67;;;;;;;12.34;100.00;99787.13;5016125;28;20440;-69
2023/10/30 05:23:24;;;;;;;2.13;0.60;;;;;;;12.42;100.00;99790.13;5015940;28;20515;-69
2023/10/30 05:25:51;;;;;;;2.00;0.47;;;;;;;12.42;100.00;99790.13;5016356;28;20598;-69
2023/10/30 05:28:17;;;;;;;2.00;0.60;;;;;;;12.41;100.00;99789.34;5015848;28;20519;-71
2023/10/30 05:30:44;;;;;;;1.80;0.40;;;;;;;12.43;100.00;99802.56;5016034;28;20523;-69
2023/10/30 05:33:10;;;;;;;3.17;0.67;;;;;;;12.46;100.00;99788.34;5015368;28;20476;-70
2023/10/30 05:35:38;;;;;;;2.23;0.63;;;;;;;12.47;100.00;99792.63;5015286;28;21039;-70
2023/10/30 05:38:05;;;;;;;2.37;0.57;;;;;;;12.45;100.00;99792.97;5016184;28;20535;-70
2023/10/30 05:40:32;;;;;;;2.00;0.53;;;;;;;12.43;100.00;99802.56;5015489;28;20527;-70
2023/10/30 05:42:58;;;;;;;1.80;0.40;;;;;;;12.41;100.00;99800.19;5016141;28;20531;-70
2023/10/30 05:45:25;;;;;;;2.20;0.47;;;;;;;12.40;100.00;99808.69;5015197;28;20452;-70
2023/10/30 05:47:51;;;;;;;1.90;0.50;;;;;;;12.35;100.00;99805.03;5015800;28;20472;-70
2023/10/30 05:50:18;;;;;;;1.90;0.40;;;;;;;12.37;100.00;99805.50;5015724;28;20472;-70
2023/10/30 05:52:46;;;;;;;4.13;0.77;;;;;;;12.40;100.00;99800.53;5015044;28;20518;-70
2023/10/30 05:55:13;;;;;;;2.60;0.70;;;;;;;12.41;100.00;99819.22;5015397;28;20578;-70
2023/10/30 05:57:41;;;;;;;1.80;0.40;;;;;;;12.41;100.00;99821.13;5015391;28;20494;-70
2023/10/30 06:00:09;;;;;;;5.83;0.40;;;;;;;12.40;100.00;99814.91;5015119;28;20443;-71
2023/10/30 06:02:35;;;;;;;3.57;1.07;;;;;;;12.45;100.00;99811.19;5015057;28;20948;-68
2023/10/30 06:05:04;;;;;;;2.53;0.67;;;;;;;12.43;100.00;99814.22;5015043;28;20463;-68
2023/10/30 06:07:31;;;;;;;5.43;0.60;;;;;;;12.44;100.00;99809.59;5015047;28;20441;-68
2023/10/30 06:09:59;;;;;;;1.80;0.40;;;;;;;12.46;100.00;99818.22;5014966;28;20482;-69
2023/10/30 06:12:26;;;;;;;2.00;0.50;;;;;;;12.50;100.00;99809.06;5015125;28;20436;-66
2023/10/30 06:14:52;;;;;;;4.83;0.57;;;;;;;12.54;100.00;99817.34;5014918;28;20484;-67
2023/10/30 06:17:19;;;;;;;1.80;0.40;;;;;;;12.60;100.00;99824.16;5014924;28;20474;-67
2023/10/30 06:19:45;;;;;;;1.97;0.43;;;;;;;12.61;100.00;99826.53;5014784;28;20444;-67
2023/10/30 06:22:12;;;;;;;2.47;0.60;;;;;;;12.61;100.00;99814.88;5014748;28;20452;-67
2023/10/30 06:24:39;;;;;;;2.20;0.63;;;;;;;12.62;100.00;99828.13;5014362;28;20470;-67
2023/10/30 06:27:07;;;;;;;1.97;0.57;;;;;;;12.64;100.00;99833.22;5014925;28;20871;-67
2023/10/30 06:29:34;;;;;;;2.17;0.63;;;;;;;12.64;100.00;99841.38;5014714;28;20446;-67
2023/10/30 06:32:00;;;;;;;1.90;0.47;;;;;;;12.68;100.00;99842.31;5014809;28;20451;-67
2023/10/30 06:34:27;;;;;;;3.20;0.40;;;;;;;12.72;100.00;99843.22;5013951;28;20594;-67
2023/10/30 06:36:54;;;;;;;2.00;0.60;;;;;;;12.80;100.00;99838.84;5014714;28;20527;-67
2023/10/30 06:39:20;;;;;;;1.83;0.40;;;;;;;12.84;100.00;99845.22;5014578;28;20444;-67
2023/10/30 06:41:48;;;;;;;2.20;0.60;;;;;;;12.84;100.00;99846.00;5014487;28;20892;-67
2023/10/30 06:44:16;;;;;;;2.33;0.53;;;;;;;12.84;100.00;99832.41;5014352;28;20471;-67
2023/10/30 06:46:44;;;;;;;2.20;0.57;;;;;;;12.87;100.00;99839.88;5014793;28;20532;-67
2023/10/30 06:49:10;;;;;;;1.87;0.47;;;;;;;12.92;100.00;99852.47;5014553;28;20455;-67
2023/10/30 06:51:37;;;;;;;2.30;0.50;;;;;;;12.95;100.00;99862.69;5014031;28;20532;-67
2023/10/30 06:54:04;;;;;;;1.80;0.40;;;;;;;12.98;100.00;99870.19;5014276;28;20456;-67
2023/10/30 06:56:30;;;;;;;2.00;0.50;;;;;;;12.99;100.00;99862.81;4996533;28;21021;-67
2023/10/30 06:58:57;;;;;;;2.53;0.60;;;;;;;13.05;100.00;99856.81;5014226;28;20531;-67
2023/10/30 07:01:25;;;;;;;2.40;0.60;;;;;;;13.14;100.00;99833.03;5013930;28;21021;-67
2023/10/30 07:03:51;;;;;;;1.90;0.43;;;;;;;13.24;100.00;99847.41;5013740;28;20559;-67
2023/10/30 07:06:18;;;;;;;2.00;0.57;;;;;;;13.29;100.00;99861.56;5014243;28;20515;-70
2023/10/30 07:08:45;;;;;;;2.00;0.50;;;;;;;13.34;100.00;99852.41;5014518;28;20439;-69
2023/10/30 07:11:11;;;;;;;2.30;0.50;;;;;;;13.34;100.00;99858.63;5014137;28;20440;-69
2023/10/30 07:13:38;;;;;;;2.03;0.70;;;;;;;13.39;100.00;99871.22;5014102;28;20946;-69
2023/10/30 07:16:07;;;;;;;2.10;0.60;;;;;;;13.37;100.00;99878.94;5014853;28;20566;-68
2023/10/30 07:18:35;;;;;;;2.00;0.50;;;;;;;13.40;99.30;99870.06;5013772;28;20950;-71
2023/10/30 07:21:02;;;;;;;2.00;0.50;;;;;;;13.45;98.74;99871.78;5014094;28;20547;-71
2023/10/30 07:23:29;;;;;;;1.80;0.40;;;;;;;13.47;98.38;99892.09;5014377;28;20429;-72
2023/10/30 07:25:55;;;;;;;1.80;0.50;;;;;;;13.50;98.08;99885.16;5014030;28;20526;-71
2023/10/30 07:28:22;;;;;;;1.90;0.40;;;;;;;13.52;97.85;99901.97;5014512;28;20440;-72
2023/10/30 07:30:48;;;;;;;1.83;0.50;;;;;;;13.55;98.12;99902.09;5013712;28;20435;-72
2023/10/30 07:33:15;;;;;;;1.90;0.50;;;;;;;13.56;97.58;99894.72;5013962;28;20973;-71
2023/10/30 07:35:43;;;;;;;2.20;0.60;;;;;;;13.56;97.61;99897.44;5013326;28;20558;-71
2023/10/30 07:38:10;;;;;;;2.40;0.50;;;;;;;13.58;97.04;99898.66;5013681;28;20448;-70
2023/10/30 07:40:36;;;;;;;1.80;0.40;;;;;;;13.61;97.45;99900.72;5013519;28;20535;-71
2023/10/30 07:43:03;;;;;;;2.50;0.60;;;;;;;13.61;97.36;99910.81;5013802;28;20944;-71
2023/10/30 07:45:29;;;;;;;1.80;0.30;;;;;;;13.61;97.87;99910.81;5016865;28;20466;-72
2023/10/30 07:47:56;;;;;;;2.53;0.60;;;;;;;13.62;98.71;99906.97;5017483;28;20535;-73
2023/10/30 07:50:23;;;;;;;1.90;0.40;;;;;;;13.65;97.69;99908.22;5017518;28;20539;-72
2023/10/30 07:52:51;;;;;;;2.10;0.57;;;;;;;13.67;98.02;99895.84;5017656;28;20885;-72
2023/10/30 07:55:18;;;;;;;14.70;0.80;;;;;;;13.72;96.44;99890.19;5017807;28;20503;-70
2023/10/30 07:57:44;;;;;;;2.97;0.70;;;;;;;13.76;97.34;99882.13;5017372;28;20879;-70
2023/10/30 08:00:13;;;;;;;1.90;0.40;;;;;;;13.68;97.53;99889.28;5017693;28;20483;-71
2023/10/30 08:02:39;;;;;;;2.60;0.80;;;;;;;13.70;97.85;99891.66;5017468;28;20467;-71
2023/10/30 08:05:07;;;;;;;2.30;0.60;;;;;;;13.67;98.28;99893.13;5016845;28;20535;-71
2023/10/30 08:07:36;;;;;;;1.90;0.50;;;;;;;13.71;97.94;99890.53;5017986;28;20436;-71
2023/10/30 08:10:05;;;;;;;2.33;0.50;;;;;;;13.73;98.06;99901.88;5017042;28;20448;-71
2023/10/30 08:12:32;;;;;;;2.00;0.40;;;;;;;13.76;97.66;99906.63;5016961;28;20450;-71
2023/10/30 08:14:59;;;;;;;1.80;0.40;;;;;;;13.78;97.99;99904.38;5016800;28;20494;-71
2023/10/30 08:17:26;;;;;;;1.97;0.50;;;;;;;13.82;97.09;99894.41;5017131;28;20443;-71
2023/10/30 08:19:52;;;;;;;4.30;0.70;;;;;;;13.81;97.22;99911.84;5016842;28;20881;-71
2023/10/30 08:22:19;;;;;;;5.90;1.00;;;;;;;13.82;97.27;99895.19;5016791;28;20895;-71
2023/10/30 08:24:45;;;;;;;2.00;0.53;;;;;;;13.85;96.82;99882.81;5016913;28;20463;-71
2023/10/30 08:27:14;;;;;;;3.27;0.50;;;;;;;13.89;96.99;99883.72;5016865;28;20531;-72
2023/10/30 08:29:40;;;;;;;2.40;0.60;;;;;;;13.96;96.39;99899.50;5017204;28;20480;-71
2023/10/30 08:32:07;;;;;;;2.10;0.50;;;;;;;14.02;96.33;99900.88;5017003;28;20874;-72
2023/10/30 08:34:34;;;;;;;2.50;0.50;;;;;;;14.05;95.73;99914.59;5016396;28;20969;-71
2023/10/30 08:37:00;;;;;;;2.30;0.50;;;;;;;14.09;95.15;99907.34;5016800;28;20446;-71
2023/10/30 08:39:27;;;;;;;2.23;0.60;;;;;;;14.14;94.74;99907.09;5016994;28;20444;-71
2023/10/30 08:41:53;;;;;;;1.80;0.40;;;;;;;14.15;95.49;99905.16;5017386;28;20838;-72
2023/10/30 08:44:21;;;;;;;2.20;0.80;;;;;;;14.13;95.32;99900.06;5016423;28;20539;-71
2023/10/30 08:46:48;;;;;;;2.20;0.60;;;;;;;14.13;94.98;99889.19;5016517;28;20523;-71
2023/10/30 08:49:15;;;;;;;2.33;0.60;;;;;;;14.18;94.51;99896.31;5016732;28;20467;-72
2023/10/30 08:51:42;;;;;;;1.93;0.60;;;;;;;14.20;95.24;99902.22;5016511;28;20443;-72
2023/10/30 08:54:09;;;;;;;1.90;0.50;;;;;;;14.27;95.57;99910.63;5016398;28;20518;-70
2023/10/30 08:56:36;;;;;;;1.90;0.50;;;;;;;14.34;94.61;99921.75;5016215;28;20490;-71
2023/10/30 08:59:04;;;;;;;2.43;0.63;;;;;;;14.38;94.37;99925.34;5016593;28;20475;-71
2023/10/30 09:01:32;;;;;;;2.00;0.50;;;;;;;14.42;93.42;99924.66;5016132;28;20455;-71
2023/10/30 09:03:59;;;;;;;2.83;0.50;;;;;;;14.48;93.08;99915.13;5016119;28;20547;-72
2023/10/30 09:06:26;;;;;;;2.00;0.60;;;;;;;14.47;93.26;99914.31;5016385;28;20498;-72
2023/10/30 09:08:53;;;;;;;2.20;0.60;;;;;;;14.51;93.88;99909.00;5016168;28;20443;-72
2023/10/30 09:11:20;;;;;;;2.10;0.60;;;;;;;14.56;94.05;99895.16;5015856;28;21003;-72
2023/10/30 09:13:47;;;;;;;2.10;0.43;;;;;;;14.59;93.60;99899.91;5016232;28;20471;-71
2023/10/30 09:16:14;;;;;;;2.33;0.70;;;;;;;14.59;92.71;99899.91;5015871;28;20502;-71
2023/10/30 09:18:42;;;;;;;4.40;0.80;;;;;;;14.58;92.73;99903.78;5015877;28;20551;-71
2023/10/30 09:21:09;;;;;;;2.10;0.60;;;;;;;14.54;92.63;99894.72;5015822;28;20491;-71
2023/10/30 09:23:35;;;;;;;2.13;0.70;;;;;;;14.54;92.89;99902.88;5015680;28;20427;-72
2023/10/30 09:26:03;;;;;;;1.83;0.47;;;;;;;14.57;93.06;99910.38;5015756;28;20526;-71
2023/10/30 09:28:30;;;;;;;2.33;0.73;;;;;;;14.61;92.87;99920.25;5015442;28;20502;-71
2023/10/30 09:30:56;;;;;;;2.40;0.50;;;;;;;14.68;93.15;99936.00;5015628;28;20483;-72
2023/10/30 09:33:23;;;;;;;1.90;0.50;;;;;;;14.73;93.61;99918.63;5015705;28;20458;-72
2023/10/30 09:35:51;;;;;;;3.67;0.70;;;;;;;14.76;93.00;99921.44;5015229;28;20579;-72
2023/10/30 09:38:17;;;;;;;2.00;0.50;;;;;;;14.83;92.27;99920.84;5015379;28;20526;-72
2023/10/30 09:40:44;;;;;;;2.10;0.60;;;;;;;14.83;93.17;99918.94;5015226;28;20948;-72
2023/10/30 09:43:11;;;;;;;1.90;0.43;;;;;;;14.86;92.48;99917.44;5015480;28;20490;-73
2023/10/30 09:45:39;;;;;;;1.97;0.50;;;;;;;14.92;93.15;99909.78;5015264;28;20464;-74
2023/10/30 09:48:08;;;;;;;2.30;0.63;;;;;;;15.02;92.59;99909.31;5015419;28;20523;-68
2023/10/30 09:50:39;;;;;;;2.40;0.63;;;;;;;15.06;92.37;99912.94;5015741;28;20442;-68
2023/10/30 09:53:10;;;;;;;2.50;0.70;;;;;;;15.15;92.78;99929.97;5014967;28;20936;-70
2023/10/30 09:55:37;;;;;;;1.90;0.40;;;;;;;15.21;90.90;99914.91;5015349;28;20499;-71
2023/10/30 09:58:04;;;;;;;1.80;0.40;;;;;;;15.27;90.95;99919.00;5015032;28;20800;-71
2023/10/30 10:00:31;;;;;;;2.47;0.60;;;;;;;15.33;91.29;99914.84;5014968;28;20471;-73
2023/10/30 10:02:58;;;;;;;1.80;0.40;;;;;;;15.38;89.67;99924.72;5015685;28;20529;-71
2023/10/30 10:05:24;;;;;;;1.80;0.43;;;;;;;15.42;89.52;99924.81;5014658;28;20977;-71
2023/10/30 10:07:52;;;;;;;3.03;0.90;;;;;;;15.43;88.45;99926.41;5013935;28;20527;-71
2023/10/30 10:10:20;;;;;;;1.90;0.40;;;;;;;15.46;88.67;99934.69;5015050;28;20440;-70
2023/10/30 10:12:50;;;;;;;4.63;0.70;;;;;;;15.53;88.25;99934.06;5014949;28;20440;-70
2023/10/30 10:15:20;;;;;;;2.40;0.60;;;;;;;15.59;87.09;99946.34;5014730;28;20546;-71
2023/10/30 10:17:48;;;;;;;2.00;0.40;;;;;;;15.72;88.51;99947.09;5014610;28;20444;-70
2023/10/30 10:20:16;;;;;;;1.80;0.40;;;;;;;15.83;87.58;99939.94;5014822;28;20444;-71
2023/10/30 10:22:43;;;;;;;2.30;0.60;;;;;;;15.96;86.81;99935.97;5015434;23;20502;-71
2023/10/30 10:25:10;;;;;;;3.40;0.67;;;;;;;16.01;85.89;99929.47;4995384;28;20508;-71
2023/10/30 10:27:40;;;;;;;1.90;0.50;;;;;;;15.98;84.86;99946.53;4994432;28;20499;-70
2023/10/30 10:30:09;;;;;;;3.20;0.57;;;;;;;15.99;86.17;99945.41;4994684;28;20902;-72
2023/10/30 10:32:37;;;;;;;2.00;0.50;;;;;;;16.00;85.20;99936.06;4994774;28;20551;-69
2023/10/30 10:35:05;;;;;;;2.33;0.63;;;;;;;15.99;83.10;99935.28;4994417;28;20464;-68
2023/10/30 10:37:32;;;;;;;2.10;0.40;;;;;;;16.01;83.77;99935.72;4994418;28;20491;-69
2023/10/30 10:40:00;;;;;;;2.10;0.43;;;;;;;16.07;83.95;99942.50;4994842;28;20444;-68
2023/10/30 10:42:28;;;;;;;2.20;0.77;;;;;;;16.13;84.74;99949.28;4994798;28;20441;-68
2023/10/30 10:44:58;;;;;;;2.00;0.50;;;;;;;16.19;83.49;99941.59;4994683;28;20496;-69
2023/10/30 10:47:24;;;;;;;3.40;0.70;;;;;;;16.23;82.24;99937.00;4994288;28;20447;-68
2023/10/30 10:49:51;;;;;;;1.90;0.50;;;;;;;16.23;81.39;99945.22;4994484;28;20475;-69
2023/10/30 10:52:19;;;;;;;2.20;0.60;;;;;;;16.19;81.54;99943.53;4994474;28;20555;-70
2023/10/30 10:54:48;;;;;;;1.90;0.47;;;;;;;16.14;82.96;99944.59;4977171;28;20831;-69
2023/10/30 10:57:18;;;;;;;1.70;0.40;;;;;;;16.22;83.75;99940.09;4994212;28;20485;-68
2023/10/30 10:59:47;;;;;;;3.83;0.80;;;;;;;16.38;80.70;99938.16;4994259;28;20437;-68
2023/10/30 11:02:21;;;;;;;3.70;0.50;;;;;;;16.78;81.16;99950.78;4993881;28;20437;-68
2023/10/30 11:04:51;;;;;;;1.80;0.50;;;;;;;17.46;77.83;99941.16;4994613;28;20552;-68
2023/10/30 11:07:27;;;;;;;1.80;0.40;;;;;;;17.89;74.26;99959.19;4994523;28;20492;-68
2023/10/30 11:09:58;;;;;;;1.90;0.40;;;;;;;18.23;72.92;99946.41;4994536;28;20440;-68
2023/10/30 11:12:38;;;;;;;2.00;0.60;;;;;;;18.56;71.02;99939.47;4993818;28;20429;-68
2023/10/30 11:15:14;;;;;;;1.90;0.53;;;;;;;19.41;69.45;99940.53;4994278;28;20544;-69
2023/10/30 11:18:08;;;;;;;2.80;0.70;;;;;;;20.22;65.47;99941.66;4994000;28;21040;-68
2023/10/30 11:20:35;;;;;;;2.10;0.63;;;;;;;20.81;62.00;99950.69;4993237;28;20448;-68
2023/10/30 11:23:01;;;;;;;2.00;0.50;;;;;;;21.23;60.00;99941.00;4993944;28;20492;-68
2023/10/30 11:25:45;;;;;;;1.97;0.47;;;;;;;21.87;57.50;99943.13;4994019;28;21045;-68
2023/10/30 11:28:11;;;;;;;2.20;0.50;;;;;;;22.54;57.48;99936.78;4993915;28;20440;-68
2023/10/30 11:30:42;;;;;;;2.77;0.77;;;;;;;23.35;55.30;99940.44;4993963;28;20866;-68